sensor_id;sensor_type;location;lat;lon;timestamp;P1;durP1;ratioP1;P2;durP2;ratioP2
39044;SDS011;52192;52.002;5.956;2022-07-05T00:00:45;1.00;;;0.75;;
39044;SDS011;52192;52.002;5.956;2022-07-05T00:03:11;1.40;;;0.60;;
39044;SDS011;52192;52.002;5.956;2022-07-05T00:05:37;0.60;;;0.60;;
39044;SDS011;52192;52.002;5.956;2022-07-05T00:08:04;0.77;;;0.57;;
39044;SDS011;52192;52.002;5.956;2022-07-05T00:10:30;0.30;;;0.30;;
39044;SDS011;52192;52.002;5.956;2022-07-05T00:12:57;0.40;;;0.40;;
39044;SDS011;52192;52.002;5.956;2022-07-05T00:15:22;0.65;;;0.65;;
39044;SDS011;52192;52.002;5.956;2022-07-05T00:17:48;0.75;;;0.75;;
39044;SDS011;52192;52.002;5.956;2022-07-05T00:20:14;0.30;;;0.30;;
39044;SDS011;52192;52.002;5.956;2022-07-05T00:22:40;0.65;;;0.60;;
39044;SDS011;52192;52.002;5.956;2022-07-05T00:25:06;0.40;;;0.40;;
39044;SDS011;52192;52.002;5.956;2022-07-05T00:27:32;0.55;;;0.55;;
39044;SDS011;52192;52.002;5.956;2022-07-05T00:29:58;0.55;;;0.55;;
39044;SDS011;52192;52.002;5.956;2022-07-05T00:32:23;0.50;;;0.50;;
39044;SDS011;52192;52.002;5.956;2022-07-05T00:34:49;1.05;;;0.60;;
39044;SDS011;52192;52.002;5.956;2022-07-05T00:37:15;0.68;;;0.40;;
39044;SDS011;52192;52.002;5.956;2022-07-05T00:39:40;1.65;;;0.70;;
39044;SDS011;52192;52.002;5.956;2022-07-05T00:42:06;0.47;;;0.47;;
39044;SDS011;52192;52.002;5.956;2022-07-05T00:44:33;1.95;;;0.40;;
39044;SDS011;52192;52.002;5.956;2022-07-05T00:47:01;1.45;;;0.60;;
39044;SDS011;52192;52.002;5.956;2022-07-05T00:49:28;0.70;;;0.70;;
39044;SDS011;52192;52.002;5.956;2022-07-05T00:51:54;1.65;;;0.80;;
39044;SDS011;52192;52.002;5.956;2022-07-05T00:54:20;0.50;;;0.40;;
39044;SDS011;52192;52.002;5.956;2022-07-05T00:56:45;3.65;;;0.75;;
39044;SDS011;52192;52.002;5.956;2022-07-05T00:59:12;0.38;;;0.38;;
39044;SDS011;52192;52.002;5.956;2022-07-05T01:01:37;1.08;;;0.52;;
39044;SDS011;52192;52.002;5.956;2022-07-05T01:04:03;0.50;;;0.50;;
39044;SDS011;52192;52.002;5.956;2022-07-05T01:06:29;2.08;;;0.82;;
39044;SDS011;52192;52.002;5.956;2022-07-05T01:08:54;0.50;;;0.40;;
39044;SDS011;52192;52.002;5.956;2022-07-05T01:11:20;1.33;;;1.23;;
39044;SDS011;52192;52.002;5.956;2022-07-05T01:13:46;0.50;;;0.50;;
39044;SDS011;52192;52.002;5.956;2022-07-05T01:16:12;0.40;;;0.38;;
39044;SDS011;52192;52.002;5.956;2022-07-05T01:18:38;0.82;;;0.50;;
39044;SDS011;52192;52.002;5.956;2022-07-05T01:21:04;0.88;;;0.75;;
39044;SDS011;52192;52.002;5.956;2022-07-05T01:23:30;0.57;;;0.57;;
39044;SDS011;52192;52.002;5.956;2022-07-05T01:25:58;1.27;;;0.90;;
39044;SDS011;52192;52.002;5.956;2022-07-05T01:28:26;2.70;;;0.90;;
39044;SDS011;52192;52.002;5.956;2022-07-05T01:30:52;0.40;;;0.40;;
39044;SDS011;52192;52.002;5.956;2022-07-05T01:33:18;1.75;;;0.68;;
39044;SDS011;52192;52.002;5.956;2022-07-05T01:38:16;0.70;;;0.70;;
39044;SDS011;52192;52.002;5.956;2022-07-05T01:40:42;2.58;;;0.95;;
39044;SDS011;52192;52.002;5.956;2022-07-05T01:43:08;1.35;;;0.60;;
39044;SDS011;52192;52.002;5.956;2022-07-05T01:45:33;0.40;;;0.40;;
39044;SDS011;52192;52.002;5.956;2022-07-05T01:48:07;0.60;;;0.55;;
39044;SDS011;52192;52.002;5.956;2022-07-05T01:50:41;1.90;;;1.02;;
39044;SDS011;52192;52.002;5.956;2022-07-05T01:53:11;0.55;;;0.55;;
39044;SDS011;52192;52.002;5.956;2022-07-05T01:55:43;0.60;;;0.60;;
39044;SDS011;52192;52.002;5.956;2022-07-05T01:58:08;0.70;;;0.65;;
39044;SDS011;52192;52.002;5.956;2022-07-05T02:00:45;0.65;;;0.65;;
39044;SDS011;52192;52.002;5.956;2022-07-05T02:03:13;0.63;;;0.60;;
39044;SDS011;52192;52.002;5.956;2022-07-05T02:05:40;1.33;;;0.80;;
39044;SDS011;52192;52.002;5.956;2022-07-05T02:08:06;1.70;;;0.98;;
39044;SDS011;52192;52.002;5.956;2022-07-05T02:10:33;0.50;;;0.43;;
39044;SDS011;52192;52.002;5.956;2022-07-05T02:13:04;1.13;;;0.70;;
39044;SDS011;52192;52.002;5.956;2022-07-05T02:15:31;1.02;;;0.85;;
39044;SDS011;52192;52.002;5.956;2022-07-05T02:17:58;1.00;;;0.77;;
39044;SDS011;52192;52.002;5.956;2022-07-05T02:20:24;0.70;;;0.70;;
39044;SDS011;52192;52.002;5.956;2022-07-05T02:22:50;1.17;;;0.77;;
39044;SDS011;52192;52.002;5.956;2022-07-05T02:25:15;1.27;;;0.82;;
39044;SDS011;52192;52.002;5.956;2022-07-05T02:27:41;1.50;;;0.68;;
39044;SDS011;52192;52.002;5.956;2022-07-05T02:30:07;1.15;;;0.75;;
39044;SDS011;52192;52.002;5.956;2022-07-05T02:32:33;0.60;;;0.60;;
39044;SDS011;52192;52.002;5.956;2022-07-05T02:34:59;1.23;;;0.70;;
39044;SDS011;52192;52.002;5.956;2022-07-05T02:37:24;0.60;;;0.60;;
39044;SDS011;52192;52.002;5.956;2022-07-05T02:39:50;0.75;;;0.70;;
39044;SDS011;52192;52.002;5.956;2022-07-05T02:42:16;1.08;;;0.73;;
39044;SDS011;52192;52.002;5.956;2022-07-05T02:44:42;1.55;;;0.70;;
39044;SDS011;52192;52.002;5.956;2022-07-05T02:47:07;1.42;;;0.70;;
39044;SDS011;52192;52.002;5.956;2022-07-05T02:49:33;0.77;;;0.60;;
39044;SDS011;52192;52.002;5.956;2022-07-05T02:51:58;0.70;;;0.70;;
39044;SDS011;52192;52.002;5.956;2022-07-05T02:54:24;1.95;;;0.90;;
39044;SDS011;52192;52.002;5.956;2022-07-05T02:56:50;0.82;;;0.60;;
39044;SDS011;52192;52.002;5.956;2022-07-05T02:59:15;0.60;;;0.60;;
39044;SDS011;52192;52.002;5.956;2022-07-05T03:01:41;0.73;;;0.50;;
39044;SDS011;52192;52.002;5.956;2022-07-05T03:04:07;0.70;;;0.70;;
39044;SDS011;52192;52.002;5.956;2022-07-05T03:06:34;1.55;;;0.60;;
39044;SDS011;52192;52.002;5.956;2022-07-05T03:09:00;0.73;;;0.50;;
39044;SDS011;52192;52.002;5.956;2022-07-05T03:11:26;2.42;;;1.13;;
39044;SDS011;52192;52.002;5.956;2022-07-05T03:13:52;0.40;;;0.40;;
39044;SDS011;52192;52.002;5.956;2022-07-05T03:16:17;1.13;;;0.80;;
39044;SDS011;52192;52.002;5.956;2022-07-05T03:18:43;2.90;;;1.17;;
39044;SDS011;52192;52.002;5.956;2022-07-05T03:21:09;0.63;;;0.50;;
39044;SDS011;52192;52.002;5.956;2022-07-05T03:23:34;3.05;;;0.80;;
39044;SDS011;52192;52.002;5.956;2022-07-05T03:26:00;0.65;;;0.63;;
39044;SDS011;52192;52.002;5.956;2022-07-05T03:28:26;0.98;;;0.60;;
39044;SDS011;52192;52.002;5.956;2022-07-05T03:30:51;0.77;;;0.77;;
39044;SDS011;52192;52.002;5.956;2022-07-05T03:33:17;0.75;;;0.60;;
39044;SDS011;52192;52.002;5.956;2022-07-05T03:35:43;2.05;;;0.98;;
39044;SDS011;52192;52.002;5.956;2022-07-05T03:38:08;1.05;;;0.70;;
39044;SDS011;52192;52.002;5.956;2022-07-05T03:40:34;1.75;;;1.08;;
39044;SDS011;52192;52.002;5.956;2022-07-05T03:43:00;0.75;;;0.75;;
39044;SDS011;52192;52.002;5.956;2022-07-05T03:45:25;0.63;;;0.63;;
39044;SDS011;52192;52.002;5.956;2022-07-05T03:47:51;0.70;;;0.70;;
39044;SDS011;52192;52.002;5.956;2022-07-05T03:50:17;0.55;;;0.55;;
39044;SDS011;52192;52.002;5.956;2022-07-05T03:52:43;0.82;;;0.70;;
39044;SDS011;52192;52.002;5.956;2022-07-05T03:55:08;0.70;;;0.70;;
39044;SDS011;52192;52.002;5.956;2022-07-05T03:57:34;0.80;;;0.80;;
39044;SDS011;52192;52.002;5.956;2022-07-05T04:00:00;1.08;;;1.00;;
39044;SDS011;52192;52.002;5.956;2022-07-05T04:02:25;0.77;;;0.77;;
39044;SDS011;52192;52.002;5.956;2022-07-05T04:04:51;1.33;;;1.17;;
39044;SDS011;52192;52.002;5.956;2022-07-05T04:07:17;0.70;;;0.70;;
39044;SDS011;52192;52.002;5.956;2022-07-05T04:09:43;1.35;;;1.02;;
39044;SDS011;52192;52.002;5.956;2022-07-05T04:12:08;1.38;;;0.90;;
39044;SDS011;52192;52.002;5.956;2022-07-05T04:14:34;1.73;;;0.70;;
39044;SDS011;52192;52.002;5.956;2022-07-05T04:17:00;0.80;;;0.80;;
39044;SDS011;52192;52.002;5.956;2022-07-05T04:19:26;2.65;;;1.10;;
39044;SDS011;52192;52.002;5.956;2022-07-05T04:21:52;0.98;;;0.82;;
39044;SDS011;52192;52.002;5.956;2022-07-05T04:24:17;0.73;;;0.73;;
39044;SDS011;52192;52.002;5.956;2022-07-05T04:26:43;0.70;;;0.70;;
39044;SDS011;52192;52.002;5.956;2022-07-05T04:29:09;0.82;;;0.60;;
39044;SDS011;52192;52.002;5.956;2022-07-05T04:31:34;0.45;;;0.45;;
39044;SDS011;52192;52.002;5.956;2022-07-05T04:34:00;1.55;;;0.95;;
39044;SDS011;52192;52.002;5.956;2022-07-05T04:36:26;1.02;;;0.93;;
39044;SDS011;52192;52.002;5.956;2022-07-05T04:38:52;1.23;;;0.75;;
39044;SDS011;52192;52.002;5.956;2022-07-05T04:41:18;0.57;;;0.57;;
39044;SDS011;52192;52.002;5.956;2022-07-05T04:43:43;0.90;;;0.88;;
39044;SDS011;52192;52.002;5.956;2022-07-05T04:46:09;0.85;;;0.85;;
39044;SDS011;52192;52.002;5.956;2022-07-05T04:48:35;4.30;;;1.17;;
39044;SDS011;52192;52.002;5.956;2022-07-05T04:51:00;0.60;;;0.60;;
39044;SDS011;52192;52.002;5.956;2022-07-05T04:53:26;1.75;;;0.95;;
39044;SDS011;52192;52.002;5.956;2022-07-05T04:55:52;1.02;;;0.93;;
39044;SDS011;52192;52.002;5.956;2022-07-05T04:58:17;0.98;;;0.82;;
39044;SDS011;52192;52.002;5.956;2022-07-05T05:00:43;1.42;;;0.75;;
39044;SDS011;52192;52.002;5.956;2022-07-05T05:03:09;0.90;;;0.90;;
39044;SDS011;52192;52.002;5.956;2022-07-05T05:05:34;1.15;;;0.80;;
39044;SDS011;52192;52.002;5.956;2022-07-05T05:08:00;1.63;;;1.25;;
39044;SDS011;52192;52.002;5.956;2022-07-05T05:10:26;0.63;;;0.63;;
39044;SDS011;52192;52.002;5.956;2022-07-05T05:12:52;1.05;;;0.70;;
39044;SDS011;52192;52.002;5.956;2022-07-05T05:15:17;2.42;;;1.38;;
39044;SDS011;52192;52.002;5.956;2022-07-05T05:17:43;0.63;;;0.63;;
39044;SDS011;52192;52.002;5.956;2022-07-05T05:20:10;0.80;;;0.70;;
39044;SDS011;52192;52.002;5.956;2022-07-05T05:22:40;1.13;;;0.80;;
39044;SDS011;52192;52.002;5.956;2022-07-05T05:25:07;0.77;;;0.75;;
39044;SDS011;52192;52.002;5.956;2022-07-05T05:27:33;1.42;;;1.10;;
39044;SDS011;52192;52.002;5.956;2022-07-05T05:29:59;0.85;;;0.85;;
39044;SDS011;52192;52.002;5.956;2022-07-05T05:32:25;1.52;;;1.20;;
39044;SDS011;52192;52.002;5.956;2022-07-05T05:34:50;1.98;;;1.55;;
39044;SDS011;52192;52.002;5.956;2022-07-05T05:37:16;1.42;;;1.20;;
39044;SDS011;52192;52.002;5.956;2022-07-05T05:39:42;1.85;;;1.25;;
39044;SDS011;52192;52.002;5.956;2022-07-05T05:42:08;3.80;;;2.15;;
39044;SDS011;52192;52.002;5.956;2022-07-05T05:44:33;4.25;;;1.70;;
39044;SDS011;52192;52.002;5.956;2022-07-05T05:46:59;5.00;;;1.63;;
39044;SDS011;52192;52.002;5.956;2022-07-05T05:49:25;4.72;;;1.58;;
39044;SDS011;52192;52.002;5.956;2022-07-05T05:51:50;2.72;;;1.15;;
39044;SDS011;52192;52.002;5.956;2022-07-05T05:54:16;1.98;;;1.58;;
39044;SDS011;52192;52.002;5.956;2022-07-05T05:56:41;2.85;;;1.77;;
39044;SDS011;52192;52.002;5.956;2022-07-05T05:59:07;1.20;;;1.10;;
39044;SDS011;52192;52.002;5.956;2022-07-05T06:01:33;2.22;;;1.52;;
39044;SDS011;52192;52.002;5.956;2022-07-05T06:03:59;6.57;;;2.20;;
39044;SDS011;52192;52.002;5.956;2022-07-05T06:06:24;2.05;;;1.70;;
39044;SDS011;52192;52.002;5.956;2022-07-05T06:08:50;1.65;;;1.50;;
39044;SDS011;52192;52.002;5.956;2022-07-05T06:11:16;2.22;;;1.67;;
39044;SDS011;52192;52.002;5.956;2022-07-05T06:13:42;2.15;;;1.95;;
39044;SDS011;52192;52.002;5.956;2022-07-05T06:16:08;2.17;;;1.85;;
39044;SDS011;52192;52.002;5.956;2022-07-05T06:18:34;1.67;;;1.27;;
39044;SDS011;52192;52.002;5.956;2022-07-05T06:21:00;1.35;;;1.23;;
39044;SDS011;52192;52.002;5.956;2022-07-05T06:23:26;2.25;;;1.60;;
39044;SDS011;52192;52.002;5.956;2022-07-05T06:25:52;3.40;;;1.35;;
39044;SDS011;52192;52.002;5.956;2022-07-05T06:28:17;1.60;;;1.45;;
39044;SDS011;52192;52.002;5.956;2022-07-05T06:30:43;2.55;;;1.80;;
39044;SDS011;52192;52.002;5.956;2022-07-05T06:33:09;1.38;;;1.27;;
39044;SDS011;52192;52.002;5.956;2022-07-05T06:35:35;1.52;;;1.08;;
39044;SDS011;52192;52.002;5.956;2022-07-05T06:38:05;1.25;;;1.15;;
39044;SDS011;52192;52.002;5.956;2022-07-05T06:40:33;2.67;;;1.75;;
39044;SDS011;52192;52.002;5.956;2022-07-05T06:43:00;1.88;;;1.27;;
39044;SDS011;52192;52.002;5.956;2022-07-05T06:45:27;2.70;;;1.80;;
39044;SDS011;52192;52.002;5.956;2022-07-05T06:48:12;2.22;;;1.77;;
39044;SDS011;52192;52.002;5.956;2022-07-05T06:50:38;2.25;;;1.80;;
39044;SDS011;52192;52.002;5.956;2022-07-05T06:53:06;1.85;;;1.70;;
39044;SDS011;52192;52.002;5.956;2022-07-05T06:55:32;1.42;;;1.33;;
39044;SDS011;52192;52.002;5.956;2022-07-05T06:57:58;2.25;;;1.33;;
39044;SDS011;52192;52.002;5.956;2022-07-05T07:00:25;2.05;;;1.70;;
39044;SDS011;52192;52.002;5.956;2022-07-05T07:02:52;2.97;;;2.20;;
39044;SDS011;52192;52.002;5.956;2022-07-05T07:05:18;2.95;;;1.25;;
39044;SDS011;52192;52.002;5.956;2022-07-05T07:07:43;2.38;;;1.38;;
39044;SDS011;52192;52.002;5.956;2022-07-05T07:10:41;1.30;;;1.17;;
39044;SDS011;52192;52.002;5.956;2022-07-05T07:13:07;5.70;;;1.35;;
39044;SDS011;52192;52.002;5.956;2022-07-05T07:15:33;0.93;;;0.93;;
39044;SDS011;52192;52.002;5.956;2022-07-05T07:17:59;2.53;;;1.38;;
39044;SDS011;52192;52.002;5.956;2022-07-05T07:20:25;2.42;;;1.83;;
39044;SDS011;52192;52.002;5.956;2022-07-05T07:22:51;1.40;;;1.30;;
39044;SDS011;52192;52.002;5.956;2022-07-05T07:25:17;1.23;;;1.08;;
39044;SDS011;52192;52.002;5.956;2022-07-05T07:27:46;2.25;;;1.60;;
39044;SDS011;52192;52.002;5.956;2022-07-05T07:30:14;3.00;;;1.80;;
39044;SDS011;52192;52.002;5.956;2022-07-05T07:32:42;1.15;;;0.88;;
39044;SDS011;52192;52.002;5.956;2022-07-05T07:35:08;1.10;;;1.00;;
39044;SDS011;52192;52.002;5.956;2022-07-05T07:37:34;1.27;;;0.93;;
39044;SDS011;52192;52.002;5.956;2022-07-05T07:40:00;1.10;;;0.80;;
39044;SDS011;52192;52.002;5.956;2022-07-05T07:42:28;1.40;;;1.30;;
39044;SDS011;52192;52.002;5.956;2022-07-05T07:44:54;1.27;;;1.05;;
39044;SDS011;52192;52.002;5.956;2022-07-05T07:47:19;3.83;;;1.67;;
39044;SDS011;52192;52.002;5.956;2022-07-05T07:49:45;1.67;;;1.08;;
39044;SDS011;52192;52.002;5.956;2022-07-05T07:52:11;0.85;;;0.80;;
39044;SDS011;52192;52.002;5.956;2022-07-05T07:54:36;0.90;;;0.63;;
39044;SDS011;52192;52.002;5.956;2022-07-05T07:57:02;1.42;;;1.15;;
39044;SDS011;52192;52.002;5.956;2022-07-05T07:59:30;2.03;;;1.05;;
39044;SDS011;52192;52.002;5.956;2022-07-05T08:01:59;1.95;;;0.80;;
39044;SDS011;52192;52.002;5.956;2022-07-05T08:04:25;1.80;;;0.85;;
39044;SDS011;52192;52.002;5.956;2022-07-05T08:06:51;1.75;;;1.27;;
39044;SDS011;52192;52.002;5.956;2022-07-05T08:09:17;0.50;;;0.50;;
39044;SDS011;52192;52.002;5.956;2022-07-05T08:11:42;1.10;;;0.90;;
39044;SDS011;52192;52.002;5.956;2022-07-05T08:14:09;0.60;;;0.60;;
39044;SDS011;52192;52.002;5.956;2022-07-05T08:16:34;3.22;;;0.80;;
39044;SDS011;52192;52.002;5.956;2022-07-05T08:19:00;1.25;;;1.15;;
39044;SDS011;52192;52.002;5.956;2022-07-05T08:21:44;1.00;;;0.63;;
39044;SDS011;52192;52.002;5.956;2022-07-05T08:24:12;0.70;;;0.60;;
39044;SDS011;52192;52.002;5.956;2022-07-05T08:26:39;0.77;;;0.70;;
39044;SDS011;52192;52.002;5.956;2022-07-05T08:29:06;0.93;;;0.75;;
39044;SDS011;52192;52.002;5.956;2022-07-05T08:31:35;0.40;;;0.40;;
39044;SDS011;52192;52.002;5.956;2022-07-05T08:34:02;0.30;;;0.30;;
39044;SDS011;52192;52.002;5.956;2022-07-05T08:36:28;1.05;;;0.80;;
39044;SDS011;52192;52.002;5.956;2022-07-05T08:38:54;0.60;;;0.60;;
39044;SDS011;52192;52.002;5.956;2022-07-05T08:41:20;0.60;;;0.60;;
39044;SDS011;52192;52.002;5.956;2022-07-05T08:43:47;0.70;;;0.70;;
39044;SDS011;52192;52.002;5.956;2022-07-05T08:46:14;0.98;;;0.80;;
39044;SDS011;52192;52.002;5.956;2022-07-05T08:48:42;0.70;;;0.70;;
39044;SDS011;52192;52.002;5.956;2022-07-05T08:51:15;0.88;;;0.88;;
39044;SDS011;52192;52.002;5.956;2022-07-05T08:53:43;1.25;;;1.15;;
39044;SDS011;52192;52.002;5.956;2022-07-05T08:56:10;0.80;;;0.80;;
39044;SDS011;52192;52.002;5.956;2022-07-05T08:58:37;0.82;;;0.77;;
39044;SDS011;52192;52.002;5.956;2022-07-05T09:01:03;0.75;;;0.75;;
39044;SDS011;52192;52.002;5.956;2022-07-05T09:03:49;0.65;;;0.65;;
39044;SDS011;52192;52.002;5.956;2022-07-05T09:06:21;0.60;;;0.60;;
39044;SDS011;52192;52.002;5.956;2022-07-05T09:08:50;1.88;;;1.40;;
39044;SDS011;52192;52.002;5.956;2022-07-05T09:11:19;1.00;;;0.75;;
39044;SDS011;52192;52.002;5.956;2022-07-05T09:13:49;1.88;;;1.20;;
39044;SDS011;52192;52.002;5.956;2022-07-05T09:16:16;0.65;;;0.55;;
39044;SDS011;52192;52.002;5.956;2022-07-05T09:18:50;2.67;;;0.98;;
39044;SDS011;52192;52.002;5.956;2022-07-05T09:21:18;1.83;;;0.90;;
39044;SDS011;52192;52.002;5.956;2022-07-05T09:23:52;1.10;;;1.00;;
39044;SDS011;52192;52.002;5.956;2022-07-05T09:28:56;0.95;;;0.95;;
39044;SDS011;52192;52.002;5.956;2022-07-05T09:31:30;0.70;;;0.70;;
39044;SDS011;52192;52.002;5.956;2022-07-05T09:34:04;0.82;;;0.63;;
39044;SDS011;52192;52.002;5.956;2022-07-05T09:36:47;0.60;;;0.60;;
39044;SDS011;52192;52.002;5.956;2022-07-05T09:39:13;1.92;;;0.70;;
39044;SDS011;52192;52.002;5.956;2022-07-05T09:41:38;1.50;;;0.80;;
39044;SDS011;52192;52.002;5.956;2022-07-05T09:44:04;0.82;;;0.82;;
39044;SDS011;52192;52.002;5.956;2022-07-05T09:46:30;0.63;;;0.60;;
39044;SDS011;52192;52.002;5.956;2022-07-05T09:48:56;0.77;;;0.77;;
39044;SDS011;52192;52.002;5.956;2022-07-05T09:51:23;1.25;;;0.85;;
39044;SDS011;52192;52.002;5.956;2022-07-05T09:53:50;0.60;;;0.60;;
39044;SDS011;52192;52.002;5.956;2022-07-05T09:56:17;2.00;;;0.70;;
39044;SDS011;52192;52.002;5.956;2022-07-05T09:58:44;2.35;;;0.98;;
39044;SDS011;52192;52.002;5.956;2022-07-05T10:01:29;1.13;;;0.75;;
39044;SDS011;52192;52.002;5.956;2022-07-05T10:04:00;0.75;;;0.75;;
39044;SDS011;52192;52.002;5.956;2022-07-05T10:06:27;1.02;;;1.00;;
39044;SDS011;52192;52.002;5.956;2022-07-05T10:08:53;2.90;;;2.15;;
39044;SDS011;52192;52.002;5.956;2022-07-05T10:11:20;3.20;;;1.63;;
39044;SDS011;52192;52.002;5.956;2022-07-05T10:13:48;2.08;;;1.17;;
39044;SDS011;52192;52.002;5.956;2022-07-05T10:16:15;5.22;;;2.05;;
39044;SDS011;52192;52.002;5.956;2022-07-05T10:18:43;2.55;;;1.63;;
39044;SDS011;52192;52.002;5.956;2022-07-05T10:21:13;1.85;;;1.20;;
39044;SDS011;52192;52.002;5.956;2022-07-05T10:23:46;1.67;;;1.38;;
39044;SDS011;52192;52.002;5.956;2022-07-05T10:26:14;1.00;;;0.90;;
39044;SDS011;52192;52.002;5.956;2022-07-05T10:28:41;1.30;;;0.95;;
39044;SDS011;52192;52.002;5.956;2022-07-05T10:31:14;1.63;;;1.08;;
39044;SDS011;52192;52.002;5.956;2022-07-05T10:33:40;0.95;;;0.90;;
39044;SDS011;52192;52.002;5.956;2022-07-05T10:36:07;1.67;;;1.10;;
39044;SDS011;52192;52.002;5.956;2022-07-05T10:38:36;1.17;;;1.08;;
39044;SDS011;52192;52.002;5.956;2022-07-05T10:41:04;1.60;;;0.90;;
39044;SDS011;52192;52.002;5.956;2022-07-05T10:43:33;0.90;;;0.90;;
39044;SDS011;52192;52.002;5.956;2022-07-05T10:45:59;1.85;;;1.38;;
39044;SDS011;52192;52.002;5.956;2022-07-05T10:48:32;2.05;;;1.38;;
39044;SDS011;52192;52.002;5.956;2022-07-05T10:50:59;1.05;;;1.05;;
39044;SDS011;52192;52.002;5.956;2022-07-05T10:58:38;0.70;;;0.70;;
39044;SDS011;52192;52.002;5.956;2022-07-05T11:01:47;4.00;;;0.80;;
39044;SDS011;52192;52.002;5.956;2022-07-05T11:06:26;0.80;;;0.80;;
39044;SDS011;52192;52.002;5.956;2022-07-05T11:11:25;2.22;;;0.95;;
39044;SDS011;52192;52.002;5.956;2022-07-05T11:13:53;0.57;;;0.57;;
39044;SDS011;52192;52.002;5.956;2022-07-05T11:16:23;2.35;;;0.88;;
39044;SDS011;52192;52.002;5.956;2022-07-05T11:18:53;1.00;;;0.85;;
39044;SDS011;52192;52.002;5.956;2022-07-05T11:21:36;0.50;;;0.50;;
39044;SDS011;52192;52.002;5.956;2022-07-05T11:24:19;1.75;;;0.50;;
39044;SDS011;52192;52.002;5.956;2022-07-05T11:26:51;1.30;;;0.50;;
39044;SDS011;52192;52.002;5.956;2022-07-05T11:32:10;0.40;;;0.40;;
39044;SDS011;52192;52.002;5.956;2022-07-05T11:34:44;0.47;;;0.47;;
39044;SDS011;52192;52.002;5.956;2022-07-05T11:42:36;0.43;;;0.43;;
39044;SDS011;52192;52.002;5.956;2022-07-05T11:45:13;0.38;;;0.38;;
39044;SDS011;52192;52.002;5.956;2022-07-05T11:47:40;0.50;;;0.50;;
39044;SDS011;52192;52.002;5.956;2022-07-05T11:50:06;0.38;;;0.38;;
39044;SDS011;52192;52.002;5.956;2022-07-05T11:52:34;0.60;;;0.60;;
39044;SDS011;52192;52.002;5.956;2022-07-05T11:55:05;0.50;;;0.43;;
39044;SDS011;52192;52.002;5.956;2022-07-05T11:57:32;0.52;;;0.40;;
39044;SDS011;52192;52.002;5.956;2022-07-05T11:59:59;0.40;;;0.40;;
39044;SDS011;52192;52.002;5.956;2022-07-05T12:02:26;0.40;;;0.40;;
39044;SDS011;52192;52.002;5.956;2022-07-05T12:04:55;0.50;;;0.50;;
39044;SDS011;52192;52.002;5.956;2022-07-05T12:09:51;0.73;;;0.40;;
39044;SDS011;52192;52.002;5.956;2022-07-05T12:12:36;0.40;;;0.40;;
39044;SDS011;52192;52.002;5.956;2022-07-05T12:15:18;0.50;;;0.50;;
39044;SDS011;52192;52.002;5.956;2022-07-05T12:17:48;0.40;;;0.40;;
39044;SDS011;52192;52.002;5.956;2022-07-05T12:20:21;0.55;;;0.40;;
39044;SDS011;52192;52.002;5.956;2022-07-05T12:22:48;0.47;;;0.35;;
39044;SDS011;52192;52.002;5.956;2022-07-05T12:25:18;0.63;;;0.63;;
39044;SDS011;52192;52.002;5.956;2022-07-05T12:27:45;1.55;;;0.85;;
39044;SDS011;52192;52.002;5.956;2022-07-05T12:30:13;0.68;;;0.68;;
39044;SDS011;52192;52.002;5.956;2022-07-05T12:33:01;0.50;;;0.50;;
39044;SDS011;52192;52.002;5.956;2022-07-05T12:38:04;0.45;;;0.45;;
39044;SDS011;52192;52.002;5.956;2022-07-05T12:40:29;0.40;;;0.40;;
39044;SDS011;52192;52.002;5.956;2022-07-05T12:43:09;0.88;;;0.60;;
39044;SDS011;52192;52.002;5.956;2022-07-05T12:45:36;0.40;;;0.40;;
39044;SDS011;52192;52.002;5.956;2022-07-05T12:48:09;0.40;;;0.40;;
39044;SDS011;52192;52.002;5.956;2022-07-05T12:50:50;1.48;;;0.45;;
39044;SDS011;52192;52.002;5.956;2022-07-05T12:53:17;0.60;;;0.60;;
39044;SDS011;52192;52.002;5.956;2022-07-05T12:56:06;0.73;;;0.60;;
39044;SDS011;52192;52.002;5.956;2022-07-05T12:58:52;0.40;;;0.40;;
39044;SDS011;52192;52.002;5.956;2022-07-05T13:04:12;0.40;;;0.40;;
39044;SDS011;52192;52.002;5.956;2022-07-05T13:06:52;6.82;;;0.75;;
39044;SDS011;52192;52.002;5.956;2022-07-05T13:14:41;0.98;;;0.43;;
39044;SDS011;52192;52.002;5.956;2022-07-05T13:17:08;0.57;;;0.57;;
39044;SDS011;52192;52.002;5.956;2022-07-05T13:19:35;0.40;;;0.40;;
39044;SDS011;52192;52.002;5.956;2022-07-05T13:22:02;0.60;;;0.60;;
39044;SDS011;52192;52.002;5.956;2022-07-05T13:24:28;0.50;;;0.50;;
39044;SDS011;52192;52.002;5.956;2022-07-05T13:26:54;0.60;;;0.60;;
39044;SDS011;52192;52.002;5.956;2022-07-05T13:29:20;0.50;;;0.50;;
39044;SDS011;52192;52.002;5.956;2022-07-05T13:31:46;0.40;;;0.40;;
39044;SDS011;52192;52.002;5.956;2022-07-05T13:34:12;0.47;;;0.40;;
39044;SDS011;52192;52.002;5.956;2022-07-05T13:36:37;0.52;;;0.52;;
39044;SDS011;52192;52.002;5.956;2022-07-05T13:39:03;0.60;;;0.50;;
39044;SDS011;52192;52.002;5.956;2022-07-05T13:41:29;0.38;;;0.38;;
39044;SDS011;52192;52.002;5.956;2022-07-05T13:43:56;0.40;;;0.40;;
39044;SDS011;52192;52.002;5.956;2022-07-05T13:46:22;2.55;;;1.05;;
39044;SDS011;52192;52.002;5.956;2022-07-05T13:48:48;0.50;;;0.50;;
39044;SDS011;52192;52.002;5.956;2022-07-05T13:51:14;0.50;;;0.50;;
39044;SDS011;52192;52.002;5.956;2022-07-05T13:53:40;0.68;;;0.50;;
39044;SDS011;52192;52.002;5.956;2022-07-05T13:56:05;2.40;;;0.90;;
39044;SDS011;52192;52.002;5.956;2022-07-05T13:58:32;0.40;;;0.40;;
39044;SDS011;52192;52.002;5.956;2022-07-05T14:00:59;0.55;;;0.55;;
39044;SDS011;52192;52.002;5.956;2022-07-05T14:03:25;2.63;;;0.70;;
39044;SDS011;52192;52.002;5.956;2022-07-05T14:05:51;0.47;;;0.47;;
39044;SDS011;52192;52.002;5.956;2022-07-05T14:08:16;0.95;;;0.50;;
39044;SDS011;52192;52.002;5.956;2022-07-05T14:10:49;1.02;;;0.75;;
39044;SDS011;52192;52.002;5.956;2022-07-05T14:13:18;0.57;;;0.47;;
39044;SDS011;52192;52.002;5.956;2022-07-05T14:15:45;0.68;;;0.57;;
39044;SDS011;52192;52.002;5.956;2022-07-05T14:18:12;0.63;;;0.50;;
39044;SDS011;52192;52.002;5.956;2022-07-05T14:20:39;0.50;;;0.50;;
39044;SDS011;52192;52.002;5.956;2022-07-05T14:23:05;0.55;;;0.55;;
39044;SDS011;52192;52.002;5.956;2022-07-05T14:25:30;0.30;;;0.30;;
39044;SDS011;52192;52.002;5.956;2022-07-05T14:27:56;2.80;;;0.85;;
39044;SDS011;52192;52.002;5.956;2022-07-05T14:30:22;0.50;;;0.50;;
39044;SDS011;52192;52.002;5.956;2022-07-05T14:32:48;0.80;;;0.80;;
39044;SDS011;52192;52.002;5.956;2022-07-05T14:35:14;0.28;;;0.28;;
39044;SDS011;52192;52.002;5.956;2022-07-05T14:37:40;0.30;;;0.30;;
39044;SDS011;52192;52.002;5.956;2022-07-05T14:40:06;0.90;;;0.60;;
39044;SDS011;52192;52.002;5.956;2022-07-05T14:42:32;0.60;;;0.60;;
39044;SDS011;52192;52.002;5.956;2022-07-05T14:44:58;0.40;;;0.40;;
39044;SDS011;52192;52.002;5.956;2022-07-05T14:47:24;0.68;;;0.60;;
39044;SDS011;52192;52.002;5.956;2022-07-05T14:49:53;0.40;;;0.40;;
39044;SDS011;52192;52.002;5.956;2022-07-05T14:52:19;0.52;;;0.40;;
39044;SDS011;52192;52.002;5.956;2022-07-05T14:54:45;0.50;;;0.50;;
39044;SDS011;52192;52.002;5.956;2022-07-05T14:57:11;0.40;;;0.40;;
39044;SDS011;52192;52.002;5.956;2022-07-05T14:59:37;1.00;;;0.70;;
39044;SDS011;52192;52.002;5.956;2022-07-05T15:02:03;1.15;;;0.77;;
39044;SDS011;52192;52.002;5.956;2022-07-05T15:04:30;2.47;;;1.15;;
39044;SDS011;52192;52.002;5.956;2022-07-05T15:06:56;0.30;;;0.30;;
39044;SDS011;52192;52.002;5.956;2022-07-05T15:09:22;0.52;;;0.50;;
39044;SDS011;52192;52.002;5.956;2022-07-05T15:11:48;0.60;;;0.60;;
39044;SDS011;52192;52.002;5.956;2022-07-05T15:14:14;0.55;;;0.55;;
39044;SDS011;52192;52.002;5.956;2022-07-05T15:16:39;1.52;;;0.60;;
39044;SDS011;52192;52.002;5.956;2022-07-05T15:19:06;0.60;;;0.60;;
39044;SDS011;52192;52.002;5.956;2022-07-05T15:21:33;0.50;;;0.50;;
39044;SDS011;52192;52.002;5.956;2022-07-05T15:23:58;2.78;;;0.60;;
39044;SDS011;52192;52.002;5.956;2022-07-05T15:26:24;0.50;;;0.50;;